createdAt,value
2022-09-23T00:04:17.849Z,10.13
2022-09-23T00:09:24.492Z,10.16
2022-09-23T00:14:29.872Z,10.13
2022-09-23T00:19:35.506Z,10.16
2022-09-23T00:24:40.896Z,10.13
2022-09-23T00:29:46.302Z,10.13
2022-09-23T00:34:52.056Z,10.07
2022-09-23T00:39:57.612Z,10.00
2022-09-23T00:45:03.261Z,9.98
2022-09-23T00:50:33.985Z,9.97
2022-09-23T00:55:45.066Z,9.98
2022-09-23T01:00:50.814Z,9.92
2022-09-23T01:05:57.823Z,9.95
2022-09-23T01:11:18.961Z,9.96
2022-09-23T01:16:45.523Z,9.93
2022-09-23T01:22:01.332Z,9.93
2022-09-23T01:27:13.786Z,9.91
2022-09-23T01:32:42.937Z,9.91
2022-09-23T01:37:53.970Z,9.91
2022-09-23T01:43:05.171Z,9.88
2022-09-23T01:48:34.891Z,9.85
2022-09-23T01:53:46.390Z,9.83
2022-09-23T01:58:54.823Z,9.79
2022-09-23T02:04:12.878Z,9.79
2022-09-23T02:09:21.307Z,9.78
2022-09-23T02:14:32.563Z,9.77
2022-09-23T02:19:46.459Z,9.76
2022-09-23T02:24:54.104Z,9.74
2022-09-23T02:30:09.528Z,9.74
2022-09-23T02:35:29.372Z,9.72
2022-09-23T02:40:43.580Z,9.70
2022-09-23T02:45:49.962Z,9.67
2022-09-23T02:50:56.281Z,9.63
2022-09-23T02:56:03.381Z,9.62
2022-09-23T03:01:11.858Z,9.59
2022-09-23T03:06:32.173Z,9.54
2022-09-23T03:11:41.038Z,9.50
2022-09-23T03:17:01.547Z,9.45
2022-09-23T03:22:21.907Z,9.36
2022-09-23T03:27:30.338Z,9.32
2022-09-23T03:32:38.436Z,9.30
2022-09-23T03:37:49.723Z,9.26
2022-09-23T03:42:57.229Z,9.27
2022-09-23T03:48:03.088Z,9.21
2022-09-23T03:53:08.657Z,9.22
2022-09-23T03:58:14.686Z,9.22
2022-09-23T04:03:20.536Z,9.23
2022-09-23T04:08:26.964Z,9.16
2022-09-23T04:13:32.891Z,9.03
2022-09-23T04:18:38.273Z,8.95
2022-09-23T04:23:44.097Z,8.89
2022-09-23T04:28:49.572Z,8.87
2022-09-23T04:33:55.597Z,8.87
2022-09-23T04:39:02.040Z,8.91
2022-09-23T04:44:07.522Z,8.94
2022-09-23T04:49:13.286Z,8.91
2022-09-23T04:54:19.139Z,8.91
2022-09-23T04:59:25.101Z,8.90
2022-09-23T05:04:31.573Z,8.79
2022-09-23T05:09:37.121Z,8.77
2022-09-23T05:14:42.673Z,8.81
2022-09-23T05:19:48.137Z,8.88
2022-09-23T05:24:54.209Z,8.95
2022-09-23T05:30:01.180Z,9.07
2022-09-23T05:35:08.184Z,9.12
2022-09-23T05:40:13.615Z,9.18
2022-09-23T05:45:19.113Z,9.28
2022-09-23T05:50:24.524Z,9.36
2022-09-23T05:55:29.927Z,9.47
2022-09-23T06:00:35.387Z,9.60
2022-09-23T06:05:41.123Z,9.73
2022-09-23T06:10:53.535Z,9.92
2022-09-23T06:15:58.942Z,10.12
2022-09-23T06:21:05.996Z,10.31
2022-09-23T06:26:14.245Z,10.49
2022-09-23T06:31:20.034Z,10.66
2022-09-23T06:36:40.878Z,10.81
2022-09-23T06:41:32.695Z,11.01
2022-09-23T06:46:38.158Z,11.22
2022-09-23T06:51:43.843Z,11.51
2022-09-23T06:56:49.244Z,11.81
2022-09-23T07:01:55.038Z,12.04
2022-09-23T07:07:00.606Z,12.18
2022-09-23T07:12:06.083Z,12.35
2022-09-23T07:17:14.032Z,12.48
2022-09-23T07:22:19.897Z,12.58
2022-09-23T07:27:29.524Z,12.74
2022-09-23T07:32:45.014Z,12.90
2022-09-23T07:37:42.013Z,13.08
2022-09-23T07:42:48.085Z,13.26
2022-09-23T07:47:53.462Z,13.44
2022-09-23T07:52:58.852Z,13.64
2022-09-23T07:58:04.258Z,13.85
2022-09-23T08:03:10.305Z,14.05
2022-09-23T08:08:15.853Z,14.23
2022-09-23T08:13:21.312Z,14.33
2022-09-23T08:18:27.052Z,14.54
2022-09-23T08:23:34.035Z,14.77
2022-09-23T08:28:39.884Z,14.93
2022-09-23T08:33:45.277Z,15.11
2022-09-23T08:38:50.731Z,15.35
2022-09-23T08:43:59.261Z,15.57
2022-09-23T08:49:07.754Z,15.52
2022-09-23T08:54:13.977Z,15.81
2022-09-23T08:59:38.199Z,15.97
2022-09-23T09:04:46.625Z,16.06
2022-09-23T09:10:12.755Z,16.32
2022-09-23T09:15:25.021Z,16.50
2022-09-23T09:20:54.854Z,16.59
2022-09-23T09:26:05.160Z,16.74
2022-09-23T09:31:22.555Z,16.78
2022-09-23T09:36:36.942Z,16.83
2022-09-23T09:41:45.426Z,16.87
2022-09-23T09:47:00.677Z,17.10
2022-09-23T09:52:20.467Z,17.33
2022-09-23T09:57:35.195Z,17.34
2022-09-23T10:02:42.365Z,17.55
2022-09-23T10:07:48.758Z,17.79
2022-09-23T10:12:54.425Z,17.87
2022-09-23T10:18:03.780Z,18.04
2022-09-23T10:23:14.813Z,18.08
2022-09-23T10:28:43.878Z,18.13
2022-09-23T10:33:51.370Z,18.44
2022-09-23T10:39:21.056Z,18.65
2022-09-23T10:44:56.201Z,18.74
2022-09-23T10:50:04.915Z,18.93
2022-09-23T10:55:16.061Z,18.60
2022-09-23T11:00:30.355Z,18.79
2022-09-23T11:05:47.884Z,18.99
2022-09-23T11:11:11.618Z,18.87
2022-09-23T11:16:32.264Z,18.89
2022-09-23T11:21:58.821Z,18.95
2022-09-23T11:27:07.253Z,19.05
2022-09-23T11:32:33.857Z,18.99
2022-09-23T11:37:42.290Z,19.23
2022-09-23T11:43:02.510Z,19.25
2022-09-23T11:48:16.798Z,19.30
2022-09-23T11:53:25.231Z,19.44
2022-09-23T11:58:36.475Z,19.65
2022-09-23T12:03:53.719Z,19.80
2022-09-23T12:09:08.338Z,19.63
2022-09-23T12:14:28.293Z,19.57
2022-09-23T12:19:56.444Z,19.59
2022-09-23T12:25:38.285Z,19.44
2022-09-23T12:30:44.978Z,19.47
2022-09-23T12:35:50.976Z,19.59
2022-09-23T12:40:57.402Z,19.62
2022-09-23T12:46:27.568Z,19.62
2022-09-23T12:51:35.929Z,19.69
2022-09-23T12:56:44.353Z,19.95
2022-09-23T13:01:50.075Z,20.16
2022-09-23T13:07:01.616Z,20.21
2022-09-23T13:12:10.504Z,20.25
2022-09-23T13:17:28.061Z,20.16
2022-09-23T13:22:54.331Z,20.16
2022-09-23T13:28:05.008Z,20.08
2022-09-23T13:33:19.400Z,20.01
2022-09-23T13:38:28.219Z,20.18
2022-09-23T13:43:41.382Z,20.51
2022-09-23T13:48:49.114Z,20.62
2022-09-23T13:53:57.586Z,20.59
2022-09-23T13:59:28.879Z,20.52
2022-09-23T14:04:34.279Z,20.27
2022-09-23T14:09:45.987Z,20.10
2022-09-23T14:14:53.502Z,20.04
2022-09-23T14:19:58.969Z,20.09
2022-09-23T14:25:04.713Z,20.01
2022-09-23T14:30:21.161Z,19.81
2022-09-23T14:35:29.772Z,19.75
2022-09-23T14:40:40.945Z,19.69
2022-09-23T14:45:50.590Z,19.55
2022-09-23T14:51:04.656Z,19.39
2022-09-23T14:56:20.557Z,19.34
2022-09-23T15:01:34.859Z,19.24
2022-09-23T15:06:42.869Z,19.20
2022-09-23T15:11:48.550Z,19.16
2022-09-23T15:16:55.122Z,19.10
2022-09-23T15:22:00.608Z,19.07
2022-09-23T15:27:27.119Z,19.00
2022-09-23T15:32:32.530Z,19.01
2022-09-23T15:37:38.035Z,19.01
2022-09-23T15:42:48.284Z,18.99
2022-09-23T15:47:53.949Z,19.09
2022-09-23T15:52:59.992Z,19.01
2022-09-23T15:58:05.404Z,18.88
2022-09-23T16:03:15.703Z,18.80
2022-09-23T16:08:22.817Z,18.73
2022-09-23T16:13:28.209Z,18.59
2022-09-23T16:18:34.186Z,18.38
2022-09-23T16:23:46.906Z,18.05
2022-09-23T16:28:55.021Z,17.81
2022-09-23T16:34:02.147Z,17.53
2022-09-23T16:39:10.571Z,17.31
2022-09-23T16:44:16.495Z,17.02
2022-09-23T16:49:21.931Z,16.76
2022-09-23T16:54:27.328Z,16.50
2022-09-23T16:59:34.370Z,16.25
2022-09-23T17:04:40.809Z,16.05
2022-09-23T17:09:46.356Z,15.81
2022-09-23T17:14:52.799Z,15.63
2022-09-23T17:19:58.380Z,15.45
2022-09-23T17:25:03.963Z,15.32
2022-09-23T17:30:10.736Z,15.16
2022-09-23T17:35:16.215Z,15.00
2022-09-23T17:40:21.673Z,14.85
2022-09-23T17:45:27.427Z,14.71
2022-09-23T17:50:33.067Z,14.60
2022-09-23T17:55:38.615Z,14.50
2022-09-23T18:00:46.960Z,14.44
2022-09-23T18:05:52.652Z,14.39
2022-09-23T18:11:01.341Z,14.32
2022-09-23T18:16:07.149Z,14.28
2022-09-23T18:21:12.846Z,14.22
2022-09-23T18:26:20.518Z,14.17
2022-09-23T18:31:26.572Z,14.12
2022-09-23T18:36:33.290Z,14.09
2022-09-23T18:41:39.248Z,14.02
2022-09-23T18:46:45.009Z,13.98
2022-09-23T18:51:58.651Z,13.94
2022-09-23T18:57:04.749Z,13.88
2022-09-23T19:02:10.399Z,13.83
2022-09-23T19:07:16.041Z,13.79
2022-09-23T19:12:22.817Z,13.70
2022-09-23T19:17:29.662Z,13.68
2022-09-23T19:22:35.263Z,13.63
2022-09-23T19:27:40.731Z,13.59
2022-09-23T19:32:49.025Z,13.57
2022-09-23T19:37:54.549Z,13.52
2022-09-23T19:42:59.994Z,13.49
2022-09-23T19:48:07.836Z,13.41
2022-09-23T19:53:13.971Z,13.36
2022-09-23T19:58:19.866Z,13.29
2022-09-23T20:03:26.157Z,13.26
2022-09-23T20:08:46.549Z,13.20
2022-09-23T20:13:56.157Z,13.13
2022-09-23T20:19:04.139Z,13.06
2022-09-23T20:24:12.102Z,13.02
2022-09-23T20:29:17.512Z,13.01
2022-09-23T20:34:23.592Z,12.96
2022-09-23T20:39:29.345Z,12.90
2022-09-23T20:44:34.763Z,12.89
2022-09-23T20:49:41.842Z,12.81
2022-09-23T20:54:47.505Z,12.75
2022-09-23T20:59:53.269Z,12.69
2022-09-23T21:04:58.680Z,12.59
2022-09-23T21:10:05.875Z,12.51
2022-09-23T21:15:11.996Z,12.46
2022-09-23T21:20:17.523Z,12.44
2022-09-23T21:25:28.095Z,12.42
2022-09-23T21:30:30.111Z,12.37
2022-09-23T21:35:35.508Z,12.30
2022-09-23T21:40:59.124Z,12.27
2022-09-23T21:46:07.836Z,12.24
2022-09-23T21:51:16.136Z,12.21
2022-09-23T21:56:24.561Z,12.16
2022-09-23T22:01:35.649Z,12.16
2022-09-23T22:06:41.224Z,12.10
2022-09-23T22:12:05.103Z,12.05
2022-09-23T22:17:12.694Z,12.06
2022-09-23T22:22:19.409Z,12.05
2022-09-23T22:27:26.695Z,11.97
2022-09-23T22:32:41.230Z,11.92
2022-09-23T22:37:48.057Z,11.79
2022-09-23T22:42:54.458Z,11.77
2022-09-23T22:47:59.864Z,11.75
2022-09-23T22:53:05.544Z,11.71
2022-09-23T22:58:31.191Z,11.69
2022-09-23T23:03:19.945Z,11.67
2022-09-23T23:08:27.078Z,11.65
2022-09-23T23:13:33.471Z,11.63
2022-09-23T23:18:45.535Z,11.61
2022-09-23T23:23:53.454Z,11.58
2022-09-23T23:29:00.016Z,11.54
2022-09-23T23:34:07.951Z,11.51
2022-09-23T23:39:14.605Z,11.42
2022-09-23T23:44:20.008Z,11.36
2022-09-23T23:49:25.771Z,11.28
2022-09-23T23:54:33.044Z,11.26
2022-09-23T23:59:38.611Z,11.25
